Time,TemperatureF,DewpointF,PressureIn,WindDirection,WindDirectionDegrees,WindSpeedMPH,WindSpeedGustMPH,Humidity,HourlyPrecipIn,Conditions,Clouds,dailyrainin,SoftwareType,DateUTC
2013-02-21 00:07:00,55.1,42.0,29.87,East,93,1.0,3.0,61,0.00,,,0.00,weatherlink.com 1.10,2013-02-21 06:07:00,
2013-02-21 00:22:00,55.2,43.0,29.86,ENE,74,1.0,7.0,63,0.00,,,0.00,weatherlink.com 1.10,2013-02-21 06:22:00,
2013-02-21 00:37:00,55.3,43.0,29.86,NNE,33,3.0,7.0,63,0.00,,,0.00,weatherlink.com 1.10,2013-02-21 06:37:00,
2013-02-21 00:52:00,55.2,43.0,29.85,ENE,73,2.0,8.0,64,0.00,,,0.00,weatherlink.com 1.10,2013-02-21 06:52:00,
2013-02-21 01:07:00,55.1,43.0,29.85,SE,144,3.0,8.0,64,0.00,,,0.00,weatherlink.com 1.10,2013-02-21 07:07:00,
2013-02-21 01:23:00,55.1,44.0,29.85,ENE,71,2.0,5.0,66,0.00,,,0.00,weatherlink.com 1.10,2013-02-21 07:23:00,
2013-02-21 01:38:00,55.1,44.0,29.85,ESE,118,3.0,5.0,67,0.00,,,0.00,weatherlink.com 1.10,2013-02-21 07:38:00,
2013-02-21 01:52:00,55.1,45.0,29.84,East,88,1.0,7.0,68,0.00,,,0.00,weatherlink.com 1.10,2013-02-21 07:52:00,
2013-02-21 02:07:00,55.1,45.0,29.84,East,80,1.0,5.0,69,0.00,,,0.00,weatherlink.com 1.10,2013-02-21 08:07:00,
2013-02-21 02:22:00,55.1,45.0,29.83,East,101,1.0,7.0,70,0.00,,,0.00,weatherlink.com 1.10,2013-02-21 08:22:00,
2013-02-21 02:37:00,55.1,46.0,29.82,ENE,69,2.0,6.0,72,0.00,,,0.00,weatherlink.com 1.10,2013-02-21 08:37:00,
2013-02-21 02:53:00,55.0,46.0,29.81,SSE,148,1.0,6.0,72,0.00,,,0.00,weatherlink.com 1.10,2013-02-21 08:53:00,
2013-02-21 03:07:00,54.9,47.0,29.81,East,91,1.0,7.0,74,0.00,,,0.00,weatherlink.com 1.10,2013-02-21 09:07:00,
2013-02-21 03:23:00,54.7,48.0,29.81,ENE,78,2.0,7.0,77,0.00,,,0.00,weatherlink.com 1.10,2013-02-21 09:23:00,
2013-02-21 03:37:00,54.4,48.0,29.80,East,94,1.0,3.0,78,0.00,,,0.00,weatherlink.com 1.10,2013-02-21 09:37:00,
2013-02-21 03:53:00,53.9,48.0,29.77,ENE,70,3.0,3.0,81,0.00,,,0.00,weatherlink.com 1.10,2013-02-21 09:53:00,
2013-02-21 04:08:00,53.9,48.0,29.79,NE,55,1.0,5.0,81,0.00,,,0.00,weatherlink.com 1.10,2013-02-21 10:08:00,
2013-02-21 04:23:00,54.0,49.0,29.78,SSE,160,1.0,5.0,82,0.00,,,0.00,weatherlink.com 1.10,2013-02-21 10:23:00,
2013-02-21 04:38:00,54.1,49.0,29.77,ESE,105,1.0,5.0,82,0.00,,,0.00,weatherlink.com 1.10,2013-02-21 10:38:00,
2013-02-21 04:53:00,54.3,49.0,29.77,NE,56,3.0,9.0,82,0.00,,,0.00,weatherlink.com 1.10,2013-02-21 10:53:00,
2013-02-21 05:08:00,54.5,49.0,29.76,SE,136,7.0,8.0,82,0.00,,,0.00,weatherlink.com 1.10,2013-02-21 11:08:00,
2013-02-21 05:23:00,55.3,50.0,29.72,East,87,3.0,12.0,82,0.00,,,0.00,weatherlink.com 1.10,2013-02-21 11:23:00,
2013-02-21 05:38:00,55.4,51.0,29.74,East,91,2.0,7.0,84,0.00,,,0.00,weatherlink.com 1.10,2013-02-21 11:38:00,
2013-02-21 05:53:00,55.8,51.0,29.75,SE,133,4.0,10.0,85,0.00,,,0.00,weatherlink.com 1.10,2013-02-21 11:53:00,
2013-02-21 06:08:00,55.8,52.0,29.75,South,175,7.0,10.0,88,0.01,,,0.01,weatherlink.com 1.10,2013-02-21 12:08:00,
2013-02-21 06:23:00,56.2,53.0,29.76,NE,53,5.0,8.0,88,0.01,,,0.01,weatherlink.com 1.10,2013-02-21 12:23:00,
2013-02-21 06:38:00,56.4,53.0,29.76,SSE,151,4.0,12.0,88,0.01,,,0.01,weatherlink.com 1.10,2013-02-21 12:38:00,
2013-02-21 06:53:00,56.5,53.0,29.76,SE,144,5.0,8.0,89,0.01,,,0.01,weatherlink.com 1.10,2013-02-21 12:53:00,
2013-02-21 07:08:00,56.5,54.0,29.76,East,91,1.0,6.0,90,0.00,,,0.01,weatherlink.com 1.10,2013-02-21 13:08:00,
2013-02-21 07:23:00,56.5,54.0,29.76,ESE,117,3.0,8.0,91,0.00,,,0.01,weatherlink.com 1.10,2013-02-21 13:23:00,
2013-02-21 07:53:00,56.8,55.0,29.74,SSE,155,2.0,8.0,93,0.00,,,0.01,weatherlink.com 1.10,2013-02-21 13:53:00,
2013-02-21 08:08:00,57.0,55.0,29.74,ESE,102,7.0,10.0,93,0.00,,,0.01,weatherlink.com 1.10,2013-02-21 14:08:00,
2013-02-21 08:23:00,57.3,56.0,29.74,SE,144,7.0,10.0,94,0.00,,,0.01,weatherlink.com 1.10,2013-02-21 14:23:00,
2013-02-21 08:38:00,57.3,56.0,29.74,SE,135,11.0,18.0,94,0.00,,,0.01,weatherlink.com 1.10,2013-02-21 14:38:00,
2013-02-21 08:53:00,57.5,56.0,29.75,SE,142,9.0,11.0,94,0.00,,,0.01,weatherlink.com 1.10,2013-02-21 14:53:00,
2013-02-21 09:08:00,57.7,56.0,29.75,SSE,158,3.0,11.0,94,0.00,,,0.01,weatherlink.com 1.10,2013-02-21 15:08:00,
2013-02-21 09:23:00,58.1,57.0,29.75,SSE,165,2.0,4.0,95,0.00,,,0.01,weatherlink.com 1.10,2013-02-21 15:23:00,
2013-02-21 09:38:00,58.5,57.0,29.76,SE,144,4.0,9.0,95,0.00,,,0.01,weatherlink.com 1.10,2013-02-21 15:38:00,
2013-02-21 09:53:00,59.0,58.0,29.75,SE,130,4.0,8.0,95,0.00,,,0.01,weatherlink.com 1.10,2013-02-21 15:53:00,
2013-02-21 10:08:00,59.6,58.0,29.74,SE,136,4.0,9.0,95,0.01,,,0.02,weatherlink.com 1.10,2013-02-21 16:08:00,
2013-02-21 10:24:00,61.1,60.0,29.73,SSE,167,2.0,8.0,96,0.01,,,0.02,weatherlink.com 1.10,2013-02-21 16:24:00,
2013-02-21 10:38:00,63.3,62.0,29.71,South,169,4.0,16.0,96,0.02,,,0.03,weatherlink.com 1.10,2013-02-21 16:38:00,
2013-02-21 10:53:00,64.8,64.0,29.72,SSE,164,7.0,8.0,96,0.05,,,0.06,weatherlink.com 1.10,2013-02-21 16:53:00,
2013-02-21 11:09:00,65.0,64.0,29.73,North,5,1.0,8.0,96,0.04,,,0.06,weatherlink.com 1.10,2013-02-21 17:09:00,
2013-02-21 11:24:00,65.2,64.0,29.72,SSE,147,3.0,5.0,96,0.05,,,0.07,weatherlink.com 1.10,2013-02-21 17:24:00,
2013-02-21 11:38:00,66.3,65.0,29.70,ESE,116,5.0,8.0,96,0.04,,,0.07,weatherlink.com 1.10,2013-02-21 17:38:00,
2013-02-21 11:54:00,66.9,66.0,29.70,SSE,168,4.0,9.0,95,0.01,,,0.07,weatherlink.com 1.10,2013-02-21 17:54:00,
2013-02-21 12:09:00,67.6,66.0,29.69,South,175,4.0,7.0,95,0.01,,,0.07,weatherlink.com 1.10,2013-02-21 18:09:00,
2013-02-21 12:39:00,70.6,69.0,29.67,SSE,162,4.0,8.0,94,0.10,,,0.17,weatherlink.com 1.10,2013-02-21 18:39:00,
2013-02-21 12:54:00,69.8,66.0,29.68,SSW,198,7.0,15.0,87,0.14,,,0.21,weatherlink.com 1.10,2013-02-21 18:54:00,
2013-02-21 13:09:00,65.7,63.0,29.68,SW,226,4.0,6.0,90,0.18,,,0.25,weatherlink.com 1.10,2013-02-21 19:09:00,
2013-02-21 13:24:00,67.5,64.0,29.70,SSW,211,1.0,5.0,88,0.08,,,0.25,weatherlink.com 1.10,2013-02-21 19:24:00,
2013-02-21 13:39:00,69.2,65.0,29.69,SW,222,2.0,6.0,85,0.08,,,0.25,weatherlink.com 1.10,2013-02-21 19:39:00,
2013-02-21 13:54:00,69.8,63.0,29.69,NNW,336,0.0,8.0,79,0.03,,,0.25,weatherlink.com 1.10,2013-02-21 19:54:00,
2013-02-21 14:09:00,72.8,63.0,29.68,SW,231,1.0,5.0,71,0.00,,,0.25,weatherlink.com 1.10,2013-02-21 20:09:00,
2013-02-21 14:24:00,72.8,62.0,29.68,West,271,1.0,5.0,69,0.00,,,0.25,weatherlink.com 1.10,2013-02-21 20:24:00,
2013-02-21 14:39:00,73.1,59.0,29.68,WNW,303,1.0,5.0,62,0.00,,,0.25,weatherlink.com 1.10,2013-02-21 20:39:00,
2013-02-21 14:54:00,72.9,57.0,29.69,NNW,342,0.0,6.0,57,0.00,,,0.25,weatherlink.com 1.10,2013-02-21 20:54:00,
2013-02-21 15:09:00,73.6,55.0,29.70,SW,215,0.0,6.0,52,0.00,,,0.25,weatherlink.com 1.10,2013-02-21 21:09:00,
2013-02-21 15:24:00,73.6,53.0,29.71,West,275,1.0,5.0,49,0.00,,,0.25,weatherlink.com 1.10,2013-02-21 21:24:00,
2013-02-21 15:39:00,72.9,51.0,29.71,West,262,0.0,6.0,47,0.00,,,0.25,weatherlink.com 1.10,2013-02-21 21:39:00,
2013-02-21 15:54:00,70.9,50.0,29.72,NW,324,1.0,6.0,47,0.00,,,0.25,weatherlink.com 1.10,2013-02-21 21:54:00,
2013-02-21 16:09:00,70.6,50.0,29.73,WSW,249,1.0,3.0,48,0.00,,,0.25,weatherlink.com 1.10,2013-02-21 22:09:00,
2013-02-21 16:39:00,70.0,49.0,29.73,WSW,245,0.0,3.0,48,0.00,,,0.25,weatherlink.com 1.10,2013-02-21 22:39:00,
2013-02-21 16:54:00,69.8,51.0,29.73,WSW,245,0.0,2.0,52,0.00,,,0.25,weatherlink.com 1.10,2013-02-21 22:54:00,
2013-02-21 17:09:00,69.3,51.0,29.74,SE,128,0.0,1.0,53,0.00,,,0.25,weatherlink.com 1.10,2013-02-21 23:09:00,
2013-02-21 17:24:00,68.5,53.0,29.75,SE,128,1.0,2.0,58,0.00,,,0.25,weatherlink.com 1.10,2013-02-21 23:24:00,
2013-02-21 17:39:00,67.7,50.0,29.75,East,85,0.0,1.0,54,0.00,,,0.25,weatherlink.com 1.10,2013-02-21 23:39:00,
2013-02-21 17:54:00,67.5,48.0,29.76,East,85,0.0,1.0,49,0.00,,,0.25,weatherlink.com 1.10,2013-02-21 23:54:00,
2013-02-21 18:09:00,67.2,47.0,29.77,East,85,0.0,1.0,48,0.00,,,0.25,weatherlink.com 1.10,2013-02-22 00:09:00,
2013-02-21 18:24:00,66.6,47.0,29.77,East,85,0.0,0.0,50,0.00,,,0.25,weatherlink.com 1.10,2013-02-22 00:24:00,
2013-02-21 18:39:00,65.7,47.0,29.79,East,85,0.0,1.0,52,0.00,,,0.25,weatherlink.com 1.10,2013-02-22 00:39:00,
2013-02-21 18:54:00,64.8,46.0,29.79,East,85,0.0,0.0,50,0.00,,,0.25,weatherlink.com 1.10,2013-02-22 00:54:00,
2013-02-21 19:09:00,63.8,47.0,29.80,East,85,0.0,0.0,54,0.00,,,0.25,weatherlink.com 1.10,2013-02-22 01:09:00,
2013-02-21 19:24:00,62.7,47.0,29.80,East,85,0.0,0.0,58,0.00,,,0.25,weatherlink.com 1.10,2013-02-22 01:24:00,
2013-02-21 19:39:00,60.8,51.0,29.81,East,85,0.0,0.0,71,0.00,,,0.25,weatherlink.com 1.10,2013-02-22 01:39:00,
2013-02-21 19:54:00,58.8,49.0,29.82,East,85,0.0,0.0,70,0.00,,,0.25,weatherlink.com 1.10,2013-02-22 01:54:00,
2013-02-21 20:09:00,57.7,51.0,29.83,East,85,0.0,0.0,78,0.00,,,0.25,weatherlink.com 1.10,2013-02-22 02:09:00,
2013-02-21 20:24:00,56.3,49.0,29.84,East,85,0.0,0.0,76,0.00,,,0.25,weatherlink.com 1.10,2013-02-22 02:24:00,
2013-02-21 20:39:00,55.8,49.0,29.84,East,85,0.0,0.0,77,0.00,,,0.25,weatherlink.com 1.10,2013-02-22 02:39:00,
2013-02-21 20:54:00,55.1,49.0,29.85,East,85,0.0,0.0,81,0.00,,,0.25,weatherlink.com 1.10,2013-02-22 02:54:00,
2013-02-21 21:09:00,54.1,49.0,29.86,East,85,0.0,0.0,83,0.00,,,0.25,weatherlink.com 1.10,2013-02-22 03:09:00,
2013-02-21 21:24:00,53.4,49.0,29.86,East,85,0.0,0.0,86,0.00,,,0.25,weatherlink.com 1.10,2013-02-22 03:24:00,
2013-02-21 21:40:00,52.8,49.0,29.86,East,85,0.0,0.0,87,0.00,,,0.25,weatherlink.com 1.10,2013-02-22 03:40:00,
2013-02-21 21:54:00,52.1,48.0,29.87,East,85,0.0,0.0,86,0.00,,,0.25,weatherlink.com 1.10,2013-02-22 03:54:00,
2013-02-21 22:09:00,51.9,49.0,29.87,East,85,0.0,0.0,88,0.00,,,0.25,weatherlink.com 1.10,2013-02-22 04:09:00,
2013-02-21 22:24:00,51.4,48.0,29.87,East,85,0.0,0.0,89,0.00,,,0.25,weatherlink.com 1.10,2013-02-22 04:24:00,
2013-02-21 22:54:00,50.2,47.0,29.88,East,85,0.0,0.0,89,0.00,,,0.25,weatherlink.com 1.10,2013-02-22 04:54:00,
2013-02-21 23:09:00,49.3,46.0,29.88,East,85,0.0,0.0,89,0.00,,,0.00,weatherlink.com 1.10,2013-02-22 05:09:00,
2013-02-21 23:24:00,48.9,46.0,29.89,East,85,0.0,0.0,89,0.00,,,0.00,weatherlink.com 1.10,2013-02-22 05:24:00,
2013-02-21 23:39:00,48.8,46.0,29.90,East,85,0.0,0.0,90,0.00,,,0.00,weatherlink.com 1.10,2013-02-22 05:39:00,
2013-02-21 23:55:00,49.1,47.0,29.89,East,85,0.0,0.0,91,0.00,,,0.00,weatherlink.com 1.10,2013-02-22 05:55:00,